createdAt,value
2022-11-24T00:01:16.084Z,14.40
2022-11-24T00:03:44.879Z,14.75
2022-11-24T00:06:15.404Z,13.77
2022-11-24T00:08:46.105Z,12.68
2022-11-24T00:11:16.777Z,12.85
2022-11-24T00:13:44.522Z,13.47
2022-11-24T00:16:13.128Z,12.82
2022-11-24T00:18:42.103Z,12.88
2022-11-24T00:21:09.678Z,13.90
2022-11-24T00:23:37.858Z,11.80
2022-11-24T00:26:17.002Z,13.13
2022-11-24T00:28:45.945Z,12.15
2022-11-24T00:31:23.290Z,12.57
2022-11-24T00:33:52.998Z,12.55
2022-11-24T00:36:21.877Z,11.43
2022-11-24T00:38:53.198Z,12.67
2022-11-24T00:41:20.757Z,13.95
2022-11-24T00:43:48.380Z,10.68
2022-11-24T00:46:15.973Z,13.82
2022-11-24T00:48:43.711Z,13.00
2022-11-24T00:51:14.034Z,15.40
2022-11-24T00:53:41.951Z,11.32
2022-11-24T00:56:10.641Z,11.73
2022-11-24T00:58:38.323Z,11.32
2022-11-24T01:01:14.535Z,12.18
2022-11-24T01:03:42.823Z,11.90
2022-11-24T01:06:13.810Z,10.93
2022-11-24T01:08:42.783Z,11.23
2022-11-24T01:11:16.273Z,10.13
2022-11-24T01:13:45.991Z,11.15
2022-11-24T01:16:19.503Z,12.33
2022-11-24T01:18:47.785Z,14.52
2022-11-24T01:21:16.248Z,12.35
2022-11-24T01:23:44.056Z,10.82
2022-11-24T01:26:14.845Z,11.55
2022-11-24T01:28:47.067Z,10.83
2022-11-24T01:31:16.586Z,10.88
2022-11-24T01:33:44.331Z,14.07
2022-11-24T01:36:12.305Z,13.15
2022-11-24T01:38:39.946Z,13.25
2022-11-24T01:41:17.944Z,11.97
2022-11-24T01:43:46.901Z,10.60
2022-11-24T01:46:17.138Z,11.73
2022-11-24T01:48:50.827Z,14.65
2022-11-24T01:51:25.658Z,13.65
2022-11-24T01:53:59.377Z,13.13
2022-11-24T01:56:28.876Z,14.13
2022-11-24T01:58:59.558Z,13.20
2022-11-24T02:01:29.609Z,11.68
2022-11-24T02:03:58.125Z,11.63
2022-11-24T02:06:32.256Z,13.50
2022-11-24T02:09:32.902Z,14.68
2022-11-24T02:12:02.944Z,14.30
2022-11-24T02:14:30.949Z,15.57
2022-11-24T02:16:58.657Z,13.65
2022-11-24T02:19:38.476Z,14.10
2022-11-24T02:22:08.686Z,12.45
2022-11-24T02:24:53.502Z,11.60
2022-11-24T02:27:21.263Z,12.10
2022-11-24T02:29:50.007Z,10.57
2022-11-24T02:32:18.856Z,10.87
2022-11-24T02:34:46.275Z,11.40
2022-11-24T02:37:13.806Z,15.75
2022-11-24T02:39:41.320Z,12.98
2022-11-24T02:42:14.144Z,11.57
2022-11-24T02:44:49.067Z,15.20
2022-11-24T02:47:16.958Z,12.88
2022-11-24T02:49:44.449Z,11.82
2022-11-24T02:52:12.015Z,16.95
2022-11-24T02:54:39.586Z,14.57
2022-11-24T02:57:07.088Z,14.60
2022-11-24T02:59:34.483Z,13.18
2022-11-24T03:02:02.288Z,11.88
2022-11-24T03:04:29.897Z,12.90
2022-11-24T03:06:58.004Z,12.57
2022-11-24T03:09:25.631Z,11.50
2022-11-24T03:11:53.176Z,12.02
2022-11-24T03:14:20.703Z,11.60
2022-11-24T03:16:48.175Z,13.60
2022-11-24T03:19:15.751Z,12.90
2022-11-24T03:21:43.437Z,12.90
2022-11-24T03:24:11.005Z,12.15
2022-11-24T03:26:38.715Z,14.15
2022-11-24T03:29:06.341Z,15.18
2022-11-24T03:31:34.022Z,12.63
2022-11-24T03:34:01.591Z,14.07
2022-11-24T03:36:29.131Z,15.70
2022-11-24T03:38:56.793Z,15.48
2022-11-24T03:41:24.383Z,13.52
2022-11-24T03:43:52.102Z,13.55
2022-11-24T03:46:19.661Z,15.13
2022-11-24T03:48:47.195Z,14.02
2022-11-24T03:51:14.691Z,15.15
2022-11-24T03:53:42.263Z,15.38
2022-11-24T03:56:09.897Z,13.68
2022-11-24T03:58:37.495Z,17.27
2022-11-24T04:01:05.057Z,15.45
2022-11-24T04:03:32.565Z,17.40
2022-11-24T04:06:00.196Z,14.52
2022-11-24T04:08:27.709Z,14.88
2022-11-24T04:10:56.737Z,14.60
2022-11-24T04:13:25.961Z,14.38
2022-11-24T04:15:53.668Z,15.77
2022-11-24T04:18:21.606Z,15.60
2022-11-24T04:20:52.656Z,14.80
2022-11-24T04:23:20.556Z,15.90
2022-11-24T04:25:48.286Z,15.80
2022-11-24T04:28:15.813Z,16.60
2022-11-24T04:30:45.259Z,15.80
2022-11-24T04:33:13.698Z,16.85
2022-11-24T04:35:41.395Z,17.97
2022-11-24T04:38:08.918Z,15.13
2022-11-24T04:40:36.341Z,15.45
2022-11-24T04:43:04.016Z,17.23
2022-11-24T04:45:31.444Z,15.73
2022-11-24T04:47:59.001Z,15.90
2022-11-24T04:50:26.688Z,16.92
2022-11-24T04:52:54.320Z,16.05
2022-11-24T04:55:22.056Z,14.32
2022-11-24T04:57:49.633Z,16.95
2022-11-24T05:00:17.753Z,17.10
2022-11-24T05:02:44.991Z,16.10
2022-11-24T05:05:12.531Z,18.10
2022-11-24T05:07:40.254Z,16.40
2022-11-24T05:10:26.639Z,16.38
2022-11-24T05:12:57.850Z,16.47
2022-11-24T05:15:25.566Z,19.48
2022-11-24T05:17:53.292Z,21.80
2022-11-24T05:20:20.822Z,38.22
2022-11-24T05:22:48.412Z,25.92
2022-11-24T05:25:16.044Z,17.47
2022-11-24T05:27:43.503Z,20.17
2022-11-24T05:30:12.812Z,18.90
2022-11-24T05:32:40.533Z,15.43
2022-11-24T05:35:10.109Z,14.75
2022-11-24T05:37:38.119Z,15.43
2022-11-24T05:40:07.268Z,16.27
2022-11-24T05:42:46.298Z,20.88
2022-11-24T05:45:17.754Z,21.10
2022-11-24T05:47:45.800Z,17.80
2022-11-24T05:50:15.521Z,19.80
2022-11-24T05:52:43.562Z,19.88
2022-11-24T05:55:12.486Z,17.55
2022-11-24T05:57:40.083Z,14.43
2022-11-24T06:00:09.723Z,18.00
2022-11-24T06:02:37.434Z,16.73
2022-11-24T06:05:05.392Z,18.30
2022-11-24T06:07:32.953Z,18.83
2022-11-24T06:10:00.445Z,16.75
2022-11-24T06:12:27.872Z,17.33
2022-11-24T06:14:55.392Z,17.60
2022-11-24T06:17:22.761Z,15.50
2022-11-24T06:19:51.995Z,16.60
2022-11-24T06:22:19.709Z,15.88
2022-11-24T06:24:47.595Z,21.15
2022-11-24T06:27:15.184Z,18.43
2022-11-24T06:29:43.704Z,15.13
2022-11-24T06:32:11.457Z,16.42
2022-11-24T06:34:39.256Z,17.38
2022-11-24T06:37:07.133Z,14.82
2022-11-24T06:39:34.869Z,14.67
2022-11-24T06:42:02.632Z,13.23
2022-11-24T06:44:30.193Z,15.98
2022-11-24T06:46:57.773Z,16.40
2022-11-24T06:49:25.363Z,16.83
2022-11-24T06:51:55.563Z,16.80
2022-11-24T06:54:23.330Z,15.13
2022-11-24T06:56:50.832Z,16.80
2022-11-24T06:59:20.917Z,15.15
2022-11-24T07:01:48.674Z,17.88
2022-11-24T07:04:16.608Z,18.07
2022-11-24T07:06:44.878Z,18.33
2022-11-24T07:09:13.878Z,15.95
2022-11-24T07:11:41.798Z,20.33
2022-11-24T07:14:10.283Z,19.90
2022-11-24T07:16:38.047Z,19.13
2022-11-24T07:19:05.793Z,19.58
2022-11-24T07:21:33.594Z,21.40
2022-11-24T07:24:01.069Z,23.25
2022-11-24T07:26:28.713Z,21.17
2022-11-24T07:28:56.318Z,25.13
2022-11-24T07:31:27.196Z,29.48
2022-11-24T07:33:55.992Z,21.55
2022-11-24T07:36:24.468Z,21.42
2022-11-24T07:38:52.111Z,19.70
2022-11-24T07:41:21.829Z,19.17
2022-11-24T07:43:50.988Z,20.67
2022-11-24T07:46:20.031Z,21.77
2022-11-24T07:48:48.358Z,20.50
2022-11-24T07:51:16.375Z,21.52
2022-11-24T07:53:45.409Z,17.70
2022-11-24T07:56:13.840Z,19.10
2022-11-24T07:58:41.679Z,21.70
2022-11-24T08:01:17.218Z,17.83
2022-11-24T08:03:46.444Z,22.23
2022-11-24T08:06:38.691Z,22.90
2022-11-24T08:09:02.638Z,17.95
2022-11-24T08:11:31.828Z,21.55
2022-11-24T08:13:59.497Z,20.27
2022-11-24T08:16:27.119Z,20.30
2022-11-24T08:18:55.909Z,21.13
2022-11-24T08:21:23.947Z,16.77
2022-11-24T08:23:55.436Z,21.02
2022-11-24T08:26:25.352Z,19.60
2022-11-24T08:28:58.537Z,23.35
2022-11-24T08:31:33.629Z,19.23
2022-11-24T08:34:03.413Z,23.00
2022-11-24T08:36:31.113Z,21.42
2022-11-24T08:39:00.901Z,22.42
2022-11-24T08:41:29.559Z,23.48
2022-11-24T08:43:57.077Z,20.33
2022-11-24T08:46:25.150Z,19.08
2022-11-24T08:48:54.836Z,21.58
2022-11-24T08:51:24.674Z,18.33
2022-11-24T08:53:59.153Z,21.17
2022-11-24T08:56:28.762Z,21.30
2022-11-24T08:58:57.065Z,18.27
2022-11-24T09:01:25.273Z,23.00
2022-11-24T09:03:53.373Z,20.17
2022-11-24T09:06:25.256Z,21.80
2022-11-24T09:08:54.787Z,24.27
2022-11-24T09:11:22.834Z,26.27
2022-11-24T09:13:50.717Z,28.30
2022-11-24T09:16:29.471Z,22.63
2022-11-24T09:19:02.313Z,22.05
2022-11-24T09:21:31.562Z,24.20
2022-11-24T09:23:59.270Z,27.50
2022-11-24T09:26:35.716Z,21.48
2022-11-24T09:29:05.571Z,17.30
2022-11-24T09:31:35.948Z,21.45
2022-11-24T09:34:06.208Z,23.43
2022-11-24T09:36:33.932Z,18.70
2022-11-24T09:39:01.751Z,20.70
2022-11-24T09:42:07.184Z,21.80
2022-11-24T09:44:46.614Z,19.70
2022-11-24T09:47:23.124Z,21.43
2022-11-24T09:50:04.022Z,20.88
2022-11-24T09:53:03.923Z,19.70
2022-11-24T09:55:37.073Z,20.00
2022-11-24T09:58:30.733Z,20.33
2022-11-24T10:00:59.471Z,22.10
2022-11-24T10:03:38.793Z,21.95
2022-11-24T10:06:26.839Z,22.27
2022-11-24T10:08:57.193Z,26.23
2022-11-24T10:11:39.048Z,47.05
2022-11-24T10:14:28.395Z,48.17
2022-11-24T10:17:24.902Z,23.58
2022-11-24T10:20:06.789Z,22.85
2022-11-24T10:22:43.376Z,21.50
2022-11-24T10:25:21.712Z,22.05
2022-11-24T10:28:03.668Z,21.73
2022-11-24T10:30:31.735Z,24.33
2022-11-24T10:33:23.170Z,18.50
2022-11-24T10:35:58.324Z,21.35
2022-11-24T10:39:06.181Z,21.73
2022-11-24T10:41:42.739Z,18.43
2022-11-24T10:44:16.689Z,19.00
2022-11-24T10:46:44.484Z,20.10
2022-11-24T10:49:20.999Z,19.80
2022-11-24T10:52:05.459Z,24.08
2022-11-24T10:54:33.584Z,20.00
2022-11-24T10:57:01.290Z,20.20
2022-11-24T10:59:38.508Z,26.17
2022-11-24T11:02:29.958Z,22.77
2022-11-24T11:04:57.777Z,19.13
2022-11-24T11:07:27.256Z,23.50
2022-11-24T11:10:22.006Z,24.00
2022-11-24T11:12:50.167Z,23.00
2022-11-24T11:15:31.319Z,18.98
2022-11-24T11:18:02.083Z,18.48
2022-11-24T11:20:34.979Z,20.07
2022-11-24T11:23:14.889Z,19.80
2022-11-24T11:25:44.077Z,20.48
2022-11-24T11:28:19.012Z,22.00
2022-11-24T11:31:18.003Z,20.40
2022-11-24T11:34:07.267Z,21.33
2022-11-24T11:36:42.061Z,21.35
2022-11-24T11:39:36.794Z,19.52
2022-11-24T11:42:45.392Z,18.38
2022-11-24T11:45:23.403Z,19.52
2022-11-24T11:48:02.801Z,17.27
2022-11-24T11:51:21.587Z,18.42
2022-11-24T11:54:05.424Z,26.38
2022-11-24T11:56:46.715Z,24.55
2022-11-24T11:59:41.956Z,23.75
2022-11-24T12:03:01.206Z,18.80
2022-11-24T12:05:32.033Z,21.02
2022-11-24T12:08:10.951Z,27.77
2022-11-24T12:10:53.552Z,30.98
2022-11-24T12:13:39.672Z,21.00
2022-11-24T12:16:13.030Z,30.07
2022-11-24T12:19:04.911Z,37.85
2022-11-24T12:21:47.799Z,20.92
2022-11-24T12:24:27.149Z,21.65
2022-11-24T12:26:59.413Z,24.50
2022-11-24T12:29:33.470Z,25.73
2022-11-24T12:32:21.713Z,26.23
2022-11-24T12:35:03.422Z,19.55
2022-11-24T12:37:43.068Z,23.13
2022-11-24T12:40:30.728Z,23.65
2022-11-24T12:43:18.459Z,21.73
2022-11-24T12:45:45.882Z,21.15
2022-11-24T12:48:43.388Z,18.73
2022-11-24T12:51:20.575Z,20.15
2022-11-24T12:53:51.124Z,22.02
2022-11-24T12:56:26.320Z,17.83
2022-11-24T12:59:16.360Z,19.90
2022-11-24T13:02:02.449Z,24.60
2022-11-24T13:04:47.103Z,22.80
2022-11-24T13:07:40.178Z,27.67
2022-11-24T13:10:53.565Z,25.57
2022-11-24T13:13:17.585Z,29.87
2022-11-24T13:18:57.658Z,55.08
2022-11-24T13:21:32.588Z,27.92
2022-11-24T13:24:05.747Z,25.80
2022-11-24T13:26:35.354Z,25.10
2022-11-24T13:29:18.240Z,23.17
2022-11-24T13:31:52.797Z,20.20
2022-11-24T13:34:48.840Z,23.38
2022-11-24T13:37:34.857Z,17.57
2022-11-24T13:40:23.545Z,20.50
2022-11-24T13:43:06.422Z,24.30
2022-11-24T13:45:51.796Z,21.23
2022-11-24T13:48:22.984Z,19.80
2022-11-24T13:50:50.677Z,25.03
2022-11-24T13:53:33.983Z,24.92
2022-11-24T13:56:21.276Z,25.88
2022-11-24T13:58:50.823Z,20.40
2022-11-24T14:01:21.323Z,27.77
2022-11-24T14:04:32.597Z,33.47
2022-11-24T14:07:08.795Z,21.25
2022-11-24T14:09:46.152Z,20.42
2022-11-24T14:12:17.181Z,23.88
2022-11-24T14:14:46.854Z,32.25
2022-11-24T14:17:18.151Z,23.90
2022-11-24T14:19:48.805Z,20.88
2022-11-24T14:22:27.135Z,19.27
2022-11-24T14:25:02.502Z,20.25
2022-11-24T14:27:39.284Z,19.40
2022-11-24T14:30:11.144Z,18.00
2022-11-24T14:32:39.001Z,15.23
2022-11-24T14:35:27.186Z,16.00
2022-11-24T14:37:54.841Z,18.65
2022-11-24T14:40:54.223Z,19.80
2022-11-24T14:43:23.874Z,21.20
2022-11-24T14:46:09.672Z,17.63
2022-11-24T14:48:39.222Z,15.05
2022-11-24T14:51:17.622Z,15.07
2022-11-24T14:53:47.401Z,18.10
2022-11-24T14:56:25.412Z,18.50
2022-11-24T14:58:55.046Z,16.13
2022-11-24T15:01:29.429Z,18.17
2022-11-24T15:05:01.397Z,15.98
2022-11-24T15:07:27.565Z,14.07
2022-11-24T15:10:00.547Z,19.90
2022-11-24T15:12:29.667Z,15.73
2022-11-24T15:15:16.866Z,14.00
2022-11-24T15:17:59.549Z,17.95
2022-11-24T15:20:35.566Z,15.73
2022-11-24T15:23:28.826Z,17.90
2022-11-24T15:25:57.869Z,19.33
2022-11-24T15:28:26.952Z,22.25
2022-11-24T15:30:57.272Z,17.52
2022-11-24T15:33:25.385Z,24.63
2022-11-24T15:35:53.065Z,18.30
2022-11-24T15:38:21.186Z,18.20
2022-11-24T15:40:51.439Z,17.15
2022-11-24T15:43:42.504Z,15.52
2022-11-24T15:46:12.027Z,19.48
2022-11-24T15:48:39.834Z,17.97
2022-11-24T15:51:11.796Z,21.92
2022-11-24T15:53:43.337Z,19.15
2022-11-24T15:56:24.906Z,17.13
2022-11-24T15:58:55.125Z,16.58
2022-11-24T16:01:25.017Z,19.30
2022-11-24T16:03:52.694Z,17.23
2022-11-24T16:06:25.093Z,17.20
2022-11-24T16:08:54.404Z,23.63
2022-11-24T16:11:24.387Z,20.60
2022-11-24T16:13:53.930Z,23.40
2022-11-24T16:16:28.276Z,22.65
2022-11-24T16:18:56.846Z,25.38
2022-11-24T16:21:27.372Z,38.15
2022-11-24T16:23:56.523Z,44.67
2022-11-24T16:26:24.897Z,25.00
2022-11-24T16:28:55.472Z,28.80
2022-11-24T16:31:23.170Z,18.20
2022-11-24T16:33:51.440Z,18.90
2022-11-24T16:36:19.003Z,18.80
2022-11-24T16:38:46.676Z,15.70
2022-11-24T16:41:15.013Z,15.75
2022-11-24T16:43:43.093Z,17.77
2022-11-24T16:46:21.739Z,16.98
2022-11-24T16:48:54.174Z,17.48
2022-11-24T16:51:23.701Z,18.47
2022-11-24T16:54:00.110Z,18.83
2022-11-24T16:56:31.357Z,18.58
2022-11-24T16:58:58.793Z,33.80
2022-11-24T17:01:27.223Z,49.05
2022-11-24T17:03:55.927Z,24.27
2022-11-24T17:06:24.734Z,38.67
2022-11-24T17:08:56.724Z,33.35
2022-11-24T17:11:27.876Z,37.75
2022-11-24T17:13:58.879Z,30.25
2022-11-24T17:16:27.057Z,34.27
2022-11-24T17:18:54.909Z,26.77
2022-11-24T17:21:24.904Z,24.60
2022-11-24T17:23:57.629Z,23.05
2022-11-24T17:26:26.308Z,18.45
2022-11-24T17:28:56.281Z,18.60
2022-11-24T17:31:26.907Z,16.02
2022-11-24T17:33:57.209Z,18.25
2022-11-24T17:36:24.987Z,18.67
2022-11-24T17:38:54.333Z,17.27
2022-11-24T17:41:23.666Z,16.77
2022-11-24T17:43:57.306Z,19.13
2022-11-24T17:46:28.142Z,15.27
2022-11-24T17:48:56.502Z,19.70
2022-11-24T17:51:27.468Z,16.05
2022-11-24T17:53:58.194Z,17.87
2022-11-24T17:56:28.460Z,15.73
2022-11-24T17:59:09.094Z,17.08
2022-11-24T18:01:39.176Z,17.63
2022-11-24T18:04:07.636Z,17.52
2022-11-24T18:06:36.822Z,20.83
2022-11-24T18:09:07.711Z,18.98
2022-11-24T18:11:37.981Z,19.10
2022-11-24T18:14:05.875Z,17.98
2022-11-24T18:16:35.936Z,20.45
2022-11-24T18:19:12.328Z,25.70
2022-11-24T18:21:42.478Z,29.08
2022-11-24T18:24:14.008Z,21.20
2022-11-24T18:26:44.933Z,18.23
2022-11-24T18:29:14.844Z,19.77
2022-11-24T18:31:44.413Z,18.13
2022-11-24T18:34:12.939Z,19.92
2022-11-24T18:36:41.752Z,16.58
2022-11-24T18:39:10.284Z,18.35
2022-11-24T18:41:40.409Z,17.55
2022-11-24T18:44:09.690Z,20.13
2022-11-24T18:46:38.594Z,28.10
2022-11-24T18:49:14.704Z,23.25
2022-11-24T18:51:43.051Z,36.38
2022-11-24T18:54:11.956Z,31.25
2022-11-24T18:56:47.484Z,26.13
2022-11-24T18:59:18.708Z,20.55
2022-11-24T19:01:48.051Z,20.80
2022-11-24T19:04:16.716Z,18.80
2022-11-24T19:06:45.042Z,20.92
2022-11-24T19:09:17.119Z,19.57
2022-11-24T19:11:46.838Z,17.83
2022-11-24T19:14:17.429Z,16.55
2022-11-24T19:16:48.868Z,19.25
2022-11-24T19:19:17.675Z,18.48
2022-11-24T19:21:45.625Z,18.77
2022-11-24T19:24:13.713Z,16.30
2022-11-24T19:26:41.706Z,19.30
2022-11-24T19:29:10.747Z,19.48
2022-11-24T19:31:40.104Z,20.10
2022-11-24T19:34:08.806Z,18.60
2022-11-24T19:36:50.156Z,19.65
2022-11-24T19:39:18.108Z,17.38
2022-11-24T19:41:46.145Z,34.00
2022-11-24T19:44:14.505Z,29.27
2022-11-24T19:46:46.594Z,19.77
2022-11-24T19:49:14.504Z,32.60
2022-11-24T19:51:42.238Z,21.45
2022-11-24T19:54:14.702Z,21.70
2022-11-24T19:56:43.794Z,20.98
2022-11-24T19:59:16.528Z,16.90
2022-11-24T20:01:44.638Z,17.00
2022-11-24T20:04:15.323Z,17.10
2022-11-24T20:06:45.957Z,17.08
2022-11-24T20:09:16.271Z,16.45
2022-11-24T20:11:45.068Z,21.33
2022-11-24T20:14:14.592Z,17.52
2022-11-24T20:16:42.692Z,17.17
2022-11-24T20:19:15.704Z,18.98
2022-11-24T20:21:46.592Z,16.50
2022-11-24T20:24:25.260Z,14.93
2022-11-24T20:26:56.830Z,15.93
2022-11-24T20:29:26.179Z,14.25
2022-11-24T20:31:56.320Z,15.20
2022-11-24T20:34:24.864Z,16.52
2022-11-24T20:36:53.308Z,16.70
2022-11-24T20:39:25.664Z,16.23
2022-11-24T20:41:54.493Z,15.20
2022-11-24T20:44:23.107Z,18.05
2022-11-24T20:46:51.029Z,18.27
2022-11-24T20:49:22.304Z,15.90
2022-11-24T20:51:54.655Z,17.77
2022-11-24T20:54:22.440Z,17.30
2022-11-24T20:56:51.672Z,17.92
2022-11-24T20:59:22.986Z,16.23
2022-11-24T21:01:52.161Z,19.43
2022-11-24T21:04:22.931Z,18.45
2022-11-24T21:06:51.040Z,19.73
2022-11-24T21:09:19.372Z,18.55
2022-11-24T21:11:47.102Z,17.98
2022-11-24T21:14:14.883Z,20.90
2022-11-24T21:16:43.099Z,16.00
2022-11-24T21:19:14.051Z,20.52
2022-11-24T21:21:43.171Z,16.38
2022-11-24T21:24:18.802Z,20.38
2022-11-24T21:26:52.312Z,18.07
2022-11-24T21:29:22.720Z,15.55
2022-11-24T21:31:50.318Z,18.52
2022-11-24T21:34:19.330Z,18.58
2022-11-24T21:36:47.673Z,15.55
2022-11-24T21:39:15.957Z,16.87
2022-11-24T21:41:44.086Z,26.60
2022-11-24T21:44:13.434Z,22.02
2022-11-24T21:46:46.084Z,15.85
2022-11-24T21:49:17.140Z,18.38
2022-11-24T21:51:44.461Z,15.43
2022-11-24T21:54:11.814Z,17.65
2022-11-24T21:56:39.398Z,19.60
2022-11-24T21:59:06.774Z,16.65
2022-11-24T22:01:34.337Z,16.13
2022-11-24T22:04:01.961Z,15.60
2022-11-24T22:06:29.391Z,17.17
2022-11-24T22:08:56.809Z,16.38
2022-11-24T22:11:25.639Z,13.57
2022-11-24T22:13:53.547Z,15.60
2022-11-24T22:16:23.606Z,14.87
2022-11-24T22:18:51.385Z,14.43
2022-11-24T22:21:23.080Z,15.30
2022-11-24T22:23:53.779Z,16.30
2022-11-24T22:26:23.008Z,13.45
2022-11-24T22:28:51.092Z,16.60
2022-11-24T22:31:21.207Z,15.30
2022-11-24T22:33:49.661Z,15.27
2022-11-24T22:36:19.142Z,17.63
2022-11-24T22:38:46.642Z,14.02
2022-11-24T22:41:16.834Z,15.07
2022-11-24T22:43:45.434Z,14.93
2022-11-24T22:46:19.137Z,15.27
2022-11-24T22:48:48.880Z,12.98
2022-11-24T22:51:31.603Z,14.75
2022-11-24T22:54:04.250Z,16.40
2022-11-24T22:56:33.117Z,16.65
2022-11-24T22:59:02.046Z,14.40
2022-11-24T23:01:30.900Z,15.65
2022-11-24T23:03:58.573Z,15.18
2022-11-24T23:06:27.986Z,13.73
2022-11-24T23:08:56.168Z,13.82
2022-11-24T23:11:32.662Z,14.13
2022-11-24T23:14:04.751Z,16.50
2022-11-24T23:16:32.363Z,16.30
2022-11-24T23:19:00.103Z,14.00
2022-11-24T23:21:32.533Z,13.23
2022-11-24T23:24:02.563Z,15.18
2022-11-24T23:26:33.835Z,16.33
2022-11-24T23:29:01.618Z,15.02
2022-11-24T23:31:29.313Z,14.83
2022-11-24T23:34:01.948Z,13.70
2022-11-24T23:36:31.019Z,15.35
2022-11-24T23:39:14.750Z,13.80
2022-11-24T23:41:42.390Z,14.10
2022-11-24T23:44:10.038Z,14.27
2022-11-24T23:46:37.592Z,14.18
2022-11-24T23:49:05.201Z,14.43
2022-11-24T23:51:34.085Z,14.77
2022-11-24T23:54:01.784Z,14.77
2022-11-24T23:56:33.737Z,13.80
2022-11-24T23:59:03.180Z,14.43
